»·PEaware :: N163EB KSAN-KBUR

N163EB :: KSAN-KBUR

FLIGHT INFORMATION

Flight Status: Arrived
Operator: Privately registered:
United States
More flights under this callsign
Pilot: Josh T. (20631)
Aircraft: DASSAULT AVIATION FALCON 50
(FA50)
More flights by this aircraft type
Origin: KSAN San Diego Intl-Lindbergh
United States
Destination: KBUR Bob Hope-Burbank
United States
More flights between these airports :: More routes between these airports
Route: +CWARD2 LAX SILEX
File this flight plan on PilotEdge
Remarks:
Altitude:
(Current/Filed)
10,000ft
Speed:
(Current/Filed)
450kts
Departed: 20-Jul-20 09:00 PM
Arrived: 20-Jul-20 09:26 PM
Distance/Time
Traveled:
106nm/0:25
Distance/Time
To Go:
Arrived

Flight Plot

Page will automatically refresh every two minutes.


Map Options




Map Legend


Flown Route
Filed Route
Departure Airport
Arrival Airport
Navaid (VOR, NDB)
Fix

Horizontal Profiles

Position Reports

Time Latitude Longitude Heading Altitude Ground
Speed
20-Jul-20 20:37 32.734023 -117.179761 104 18ft 0kts
20-Jul-20 20:38 32.734023 -117.179761 104 18ft 0kts
20-Jul-20 20:38 32.734023 -117.179761 104 18ft 0kts
20-Jul-20 20:39 32.734023 -117.179761 104 18ft 0kts
20-Jul-20 20:41 32.734023 -117.179761 104 18ft 0kts
20-Jul-20 20:41 32.734023 -117.179761 104 18ft 0kts
20-Jul-20 20:42 32.734023 -117.179761 104 18ft 0kts
20-Jul-20 20:44 32.734023 -117.179761 104 18ft 0kts
20-Jul-20 20:45 32.734023 -117.179761 104 18ft 0kts
20-Jul-20 20:46 32.734023 -117.179761 104 18ft 0kts
20-Jul-20 20:47 32.734023 -117.179761 104 18ft 0kts
20-Jul-20 20:48 32.734023 -117.179761 104 18ft 0kts
20-Jul-20 20:49 32.734023 -117.179761 104 18ft 0kts
20-Jul-20 20:50 32.734023 -117.179761 104 18ft 0kts
20-Jul-20 20:51 32.734023 -117.179761 104 18ft 0kts
20-Jul-20 20:52 32.734023 -117.179760 104 18ft 0kts
20-Jul-20 20:53 32.734023 -117.179760 104 18ft 0kts
20-Jul-20 20:54 32.734023 -117.179760 104 18ft 0kts
20-Jul-20 20:55 32.734023 -117.179760 104 18ft 0kts
20-Jul-20 20:56 32.732673 -117.179808 194 18ft 6kts
20-Jul-20 20:57 32.731699 -117.177275 106 18ft 12kts
20-Jul-20 20:58 32.730666 -117.175319 159 18ft 2kts
20-Jul-20 20:59 32.731355 -117.180553 286 19ft 83kts
20-Jul-20 21:00 32.745160 -117.220566 304 1656ft 165kts
20-Jul-20 21:01 32.777816 -117.277968 302 4049ft 254kts
20-Jul-20 21:02 32.819787 -117.349848 307 7170ft 272kts
20-Jul-20 21:03 32.867440 -117.423764 307 9657ft 299kts
20-Jul-20 21:04 32.924785 -117.512912 307 9988ft 377kts
20-Jul-20 21:05 32.990599 -117.615494 307 9969ft 396kts
20-Jul-20 21:06 33.058584 -117.720230 311 9975ft 402kts
20-Jul-20 21:07 33.142105 -117.809239 319 9994ft 404kts
20-Jul-20 21:08 33.238797 -117.872600 348 10019ft 406kts
20-Jul-20 21:09 33.349796 -117.900661 347 9990ft 408kts
20-Jul-20 21:10 33.446270 -117.968562 321 9996ft 407kts
20-Jul-20 21:11 33.535247 -118.052527 321 9992ft 407kts
20-Jul-20 21:12 33.623920 -118.136708 321 9984ft 407kts
20-Jul-20 21:13 33.712644 -118.221188 321 9981ft 407kts
20-Jul-20 21:14 33.801666 -118.306184 321 9970ft 408kts
20-Jul-20 21:15 33.890319 -118.391060 321 9969ft 408kts
20-Jul-20 21:16 33.984712 -118.466446 330 9974ft 408kts
20-Jul-20 21:17 34.076213 -118.518412 321 8307ft 324kts
20-Jul-20 21:18 34.125299 -118.598069 302 7006ft 271kts
20-Jul-20 21:19 34.162636 -118.668688 305 6241ft 235kts
20-Jul-20 21:20 34.214080 -118.653191 78 4947ft 267kts
20-Jul-20 21:21 34.197245 -118.565182 86 3977ft 258kts
20-Jul-20 21:22 34.199606 -118.495288 91 2710ft 169kts
20-Jul-20 21:23 34.198999 -118.442122 91 1983ft 154kts
20-Jul-20 21:24 34.198333 -118.393732 93 1185ft 140kts
20-Jul-20 21:25 34.197703 -118.354343 89 724ft 29kts
20-Jul-20 21:26 34.198667 -118.352319 312 724ft 8kts
20-Jul-20 21:27 34.198827 -118.356324 269 724ft 18kts
20-Jul-20 21:28 34.199430 -118.358093 305 724ft 7kts
20-Jul-20 21:29 34.200044 -118.358809 263 724ft 0kts

Navigation Log

Ident Type
Flight plan parsing failed, navigation log unavailable